Latest Weather Observations for Carnarvon

IDW60801

Issued at 1:04 pm WST Sunday 26 March 2017 (issued every 30 minutes, with the page automatically refreshed every 10 minutes)

About weather observations | Map of weather stations | Latest weather observations for WA | Other Formats
Station Details ID: 006011 Name: CARNARVON AIRPORT Lat: -24.89 Lon: 113.67 Height: 4.0 m
Data from the previous 72 hours. | See also: Recent months at Carnarvon
Date/Time
WST
Temp
°C
App
Temp
°C
Dew
Point
°C
Rel
Hum
%
Delta-T
°C
Wind Press
QNH
hPa
Press
MSL
hPa
Rain since
9am
mm
Dir  Spd
km/h
Gust
km/h
Spd
kts
Gust
kts
26/01:00pm 27.4 21.0 14.2 44 7.9 S 41 54 22 29 1012.3 - 0.0
26/12:30pm 26.5 20.2 14.7 48 7.1 S 41 54 22 29 1012.7 - 0.0
26/12:00pm 26.1 20.3 15.0 50 6.7 S 39 52 21 28 1012.9 1012.9 0.0
26/11:30am 26.1 20.4 15.2 51 6.6 S 39 48 21 26 1013.1 - 0.0
26/11:00am 25.4 20.0 16.1 56 5.7 S 39 50 21 27 1013.3 - 0.0
26/10:30am 25.4 19.7 15.3 53 6.1 S 39 48 21 26 1013.6 - 0.0
26/10:00am 25.4 20.0 16.1 56 5.7 S 39 48 21 26 1013.7 - 0.0
26/09:30am 24.8 19.3 15.7 57 5.5 SSE 39 50 21 27 1013.6 - 0.0
26/09:00am 24.1 18.6 15.8 59 5.0 SSE 39 48 21 26 1013.6 1013.6 0.0
26/08:30am 23.6 19.0 16.2 63 4.5 SSE 35 46 19 25 1013.6 - 0.0
26/08:00am 23.1 19.4 16.9 68 3.8 SSE 32 43 17 23 1013.4 - 0.0
26/07:30am 22.9 20.0 17.0 69 3.6 SSE 28 37 15 20 1013.4 - 0.0
26/07:00am 22.1 20.4 17.2 74 3.0 SSE 22 32 12 17 1013.0 - 0.0
26/06:30am 21.9 20.2 17.2 74 2.9 SSE 22 30 12 16 1012.5 - 0.0
26/06:00am 21.9 19.1 17.4 75 2.8 SSE 28 35 15 19 1012.1 1012.1 0.0
26/05:30am 22.2 19.9 17.5 74 2.9 SSE 26 33 14 18 1011.9 - 0.0
26/05:00am 22.0 19.3 17.6 76 2.7 SSE 28 35 15 19 1011.7 - 0.0
26/04:30am 22.4 19.5 17.9 75 2.8 S 30 39 16 21 1011.5 - 0.0
26/04:00am 22.3 19.5 17.3 73 3.1 S 28 37 15 20 1011.4 - 0.0
26/03:30am 22.2 18.7 17.5 74 2.9 S 32 41 17 22 1011.4 - 0.0
26/03:00am 22.3 18.9 18.1 77 2.6 S 33 41 18 22 1011.4 1011.4 0.0
26/02:30am 22.4 19.9 18.8 80 2.3 S 30 41 16 22 1011.3 - 0.0
26/02:00am 22.5 20.6 19.4 82 2.0 S 28 35 15 19 1011.1 - 0.0
26/01:30am 22.5 20.3 19.5 83 1.9 S 30 37 16 20 1011.0 - 0.0
26/01:00am 22.6 20.4 19.6 83 1.9 S 30 39 16 21 1010.8 - 0.0
26/12:30am 22.6 20.8 19.6 83 1.9 S 28 35 15 19 1010.7 - 0.0
26/12:00am 22.7 20.9 19.6 82 2.0 S 28 35 15 19 1010.6 1010.6 0.0
 
Date/Time
WST
Temp
°C
App
Temp
°C
Dew
Point
°C
Rel
Hum
%
Delta-T
°C
Wind Press
QNH
hPa
Press
MSL
hPa
Rain since
9am
mm
Dir  Spd
km/h
Gust
km/h
Spd
kts
Gust
kts
25/11:30pm 22.9 21.2 19.8 83 2.0 S 28 35 15 19 1010.3 - 0.0
25/11:00pm 23.1 21.9 20.0 83 2.0 S 26 33 14 18 1010.4 - 0.0
25/10:30pm 23.4 21.9 20.3 83 2.0 S 28 35 15 19 1010.3 - 0.0
25/10:00pm 23.6 22.9 20.2 81 2.2 S 24 33 13 18 1010.3 - 0.0
25/09:30pm 23.9 23.7 20.5 81 2.2 S 22 30 12 16 1010.1 - 0.0
25/09:00pm 24.2 22.6 20.7 81 2.3 S 30 39 16 21 1009.9 1009.9 0.0
25/08:30pm 24.4 21.9 20.1 77 2.8 S 33 41 18 22 1009.6 - 0.0
25/08:00pm 24.3 22.1 20.8 81 2.3 S 33 44 18 24 1009.4 - 0.0
25/07:30pm 24.4 22.4 20.7 80 2.4 S 32 41 17 22 1009.2 - 0.0
25/07:00pm 24.5 21.4 20.5 78 2.6 SSW 37 46 20 25 1008.9 - 0.0
25/06:30pm 24.8 22.8 21.2 80 2.4 SSW 33 48 18 26 1008.5 - 0.0
25/06:00pm 25.5 23.0 20.9 75 3.0 SSW 35 46 19 25 1008.2 1008.2 0.0
25/05:30pm 26.1 24.1 21.1 74 3.3 SSW 33 44 18 24 1007.9 - 0.0
25/05:00pm 26.5 24.4 20.9 71 3.7 SSW 33 43 18 23 1007.7 - 0.0
25/04:30pm 27.1 25.1 20.7 68 4.2 SSW 32 41 17 22 1007.6 - 0.0
25/04:00pm 27.6 25.0 19.6 61 5.2 SSW 32 39 17 21 1007.4 - 0.0
25/03:30pm 27.8 25.3 19.7 61 5.3 SSW 32 39 17 21 1007.4 - 0.0
25/03:00pm 27.3 25.9 20.5 66 4.5 SSW 28 37 15 20 1007.3 1007.3 0.0
25/02:30pm 27.8 25.7 19.8 61 5.2 SSW 30 39 16 21 1007.5 - 0.0
25/02:00pm 27.9 26.6 20.6 64 4.8 SSW 28 35 15 19 1007.6 - 0.0
25/01:30pm 27.2 25.7 20.3 66 4.5 SSW 28 33 15 18 1007.9 - 0.0
25/01:00pm 27.3 25.9 20.5 66 4.5 SSW 28 33 15 18 1008.1 - 0.0
25/12:30pm 27.2 25.8 20.5 67 4.4 SSW 28 32 15 17 1008.3 - 0.0
25/12:00pm 27.0 26.0 19.6 64 4.8 SSW 24 32 13 17 1008.7 1008.7 0.0
25/11:30am 26.9 25.5 19.7 64 4.7 SSW 26 33 14 18 1009.1 - 0.0
25/11:00am 26.3 24.6 19.8 67 4.2 SSW 28 33 15 18 1009.5 - 0.0
25/10:30am 25.2 23.9 19.8 72 3.5 SSW 26 32 14 17 1009.9 - 0.0
25/10:00am 25.9 25.3 19.7 68 4.0 S 22 28 12 15 1010.1 - 0.0
25/09:30am 25.8 25.7 19.6 68 4.0 S 19 24 10 13 1010.2 - 0.0
25/09:00am 25.4 24.3 17.8 62 4.8 SSE 20 26 11 14 1010.2 1010.2 0.0
25/08:30am 24.3 23.3 17.9 67 4.0 S 20 28 11 15 1010.0 - 0.0
25/08:00am 23.9 23.9 18.0 69 3.7 SSE 15 17 8 9 1009.7 - 0.0
25/07:30am 22.7 22.8 18.4 76 2.7 SSE 15 19 8 10 1009.3 - 0.0
25/07:00am 22.0 21.8 18.5 80 2.2 S 17 20 9 11 1009.2 - 0.0
25/06:30am 21.6 21.4 18.4 82 2.0 S 17 20 9 11 1009.0 - 0.0
25/06:00am 21.4 21.7 18.7 84 1.7 S 15 19 8 10 1008.9 1008.9 0.0
25/05:30am 21.4 22.1 18.9 86 1.6 S 13 15 7 8 1008.6 - 0.0
25/05:00am 21.6 22.3 18.9 84 1.7 S 13 17 7 9 1008.5 - 0.0
25/04:30am 21.8 22.5 18.8 83 1.9 S 13 17 7 9 1008.3 - 0.0
25/04:00am 21.8 21.5 18.3 80 2.2 S 17 20 9 11 1008.2 - 0.0
25/03:30am 21.9 21.9 18.1 79 2.4 SSE 15 20 8 11 1008.2 - 0.0
25/03:00am 22.0 21.2 18.0 78 2.5 S 19 22 10 12 1008.3 1008.3 0.0
25/02:30am 22.2 21.4 18.0 77 2.6 S 19 24 10 13 1008.3 - 0.0
25/02:00am 22.4 21.7 18.2 77 2.6 S 19 26 10 14 1008.4 - 0.0
25/01:30am 22.7 22.0 18.6 77 2.6 S 20 28 11 15 1008.6 - 0.0
25/01:00am 22.9 22.0 19.0 78 2.5 S 22 32 12 17 1008.7 - 0.0
25/12:30am 22.9 21.5 18.8 77 2.6 S 24 33 13 18 1008.9 - 0.0
25/12:00am 23.0 21.2 18.7 77 2.7 S 26 35 14 19 1008.9 1008.9 0.0
 
Date/Time
WST
Temp
°C
App
Temp
°C
Dew
Point
°C
Rel
Hum
%
Delta-T
°C
Wind Press
QNH
hPa
Press
MSL
hPa
Rain since
9am
mm
Dir  Spd
km/h
Gust
km/h
Spd
kts
Gust
kts
24/11:30pm 23.1 21.7 18.7 76 2.8 S 24 32 13 17 1009.1 - 0.0
24/11:00pm 23.1 21.7 18.7 76 2.8 S 24 32 13 17 1009.3 - 0.0
24/10:30pm 23.2 22.0 18.4 74 3.0 S 22 30 12 16 1009.6 - 0.0
24/10:00pm 23.5 21.1 18.3 72 3.3 S 28 37 15 20 1009.3 - 0.0
24/09:30pm 23.6 20.7 18.0 71 3.5 S 30 39 16 21 1008.9 - 0.0
24/09:00pm 23.7 20.3 17.8 69 3.7 S 32 43 17 23 1008.7 1008.7 0.0
24/08:30pm 23.9 20.4 17.8 68 3.8 S 33 46 18 25 1008.6 - 0.0
24/08:00pm 24.3 19.8 17.4 65 4.3 S 37 48 20 26 1008.3 - 0.0
24/07:30pm 24.2 21.8 19.2 73 3.2 S 30 39 16 21 1008.1 - 0.0
24/07:00pm 24.3 20.7 18.5 70 3.7 S 35 46 19 25 1007.8 - 0.0
24/06:30pm 24.5 21.0 18.8 70 3.6 SSW 35 52 19 28 1007.4 - 0.0
24/06:00pm 24.9 20.6 18.6 68 4.0 SSW 39 52 21 28 1007.1 1007.1 0.0
24/05:30pm 25.4 21.2 18.8 67 4.2 SSW 39 56 21 30 1006.9 - 0.0
24/05:00pm 25.7 21.1 18.8 65 4.4 SSW 41 54 22 29 1006.6 - 0.0
24/04:30pm 26.3 22.5 19.0 64 4.7 SSW 37 50 20 27 1006.7 - 0.0
24/04:00pm 26.8 23.8 19.0 62 5.0 SSW 33 46 18 25 1006.7 - 0.0
24/03:30pm 27.3 23.9 17.8 56 6.0 SSW 32 39 17 21 1007.0 - 0.0
24/03:00pm 27.3 24.4 18.0 56 5.9 SSW 30 37 16 20 1007.2 1007.2 0.0
24/02:30pm 27.2 23.1 16.0 50 6.9 S 32 41 17 22 1007.4 - 0.0
24/02:00pm 26.5 22.4 16.5 54 6.2 S 33 41 18 22 1007.6 - 0.0
24/01:30pm 26.0 21.7 17.0 57 5.6 S 35 44 19 24 1008.0 - 0.0
24/01:00pm 25.8 21.1 16.8 57 5.6 S 37 44 20 24 1008.3 - 0.0
24/12:30pm 25.7 21.1 17.2 59 5.3 S 37 44 20 24 1008.5 - 0.0
24/12:00pm 25.5 21.2 16.8 58 5.4 S 35 43 19 23 1008.9 1008.9 0.0
24/11:30am 25.7 21.1 16.1 55 5.9 S 35 44 19 24 1009.2 - 0.0
24/11:00am 26.0 21.0 15.1 51 6.6 S 35 44 19 24 1009.7 - 0.0
24/10:30am 25.9 21.4 15.3 52 6.4 S 33 44 18 24 1010.0 - 0.0
24/10:00am 24.5 19.7 15.6 57 5.4 S 35 43 19 23 1010.1 - 0.0
24/09:30am 24.1 18.9 15.5 58 5.2 S 37 48 20 26 1010.0 - 0.0
24/09:00am 24.3 19.2 15.7 58 5.2 S 37 50 20 27 1010.1 1010.1 0.0
24/08:30am 23.1 17.6 15.8 63 4.4 S 39 52 21 28 1010.0 - 0.0
24/08:00am 22.7 18.2 16.5 68 3.8 S 35 46 19 25 1009.8 - 0.0
24/07:30am 21.6 18.2 16.8 74 2.9 S 30 39 16 21 1009.6 - 0.0
24/07:00am 20.9 17.6 17.0 78 2.4 S 30 39 16 21 1009.5 - 0.0
24/06:30am 20.7 17.7 16.7 78 2.4 S 28 37 15 20 1009.3 - 0.0
24/06:00am 20.8 17.1 16.9 78 2.4 S 32 41 17 22 1009.1 1009.1 0.0
24/05:30am 21.0 18.5 17.2 79 2.3 S 26 33 14 18 1008.9 - 0.0
24/05:00am 21.1 18.3 17.2 78 2.4 S 28 35 15 19 1008.7 - 0.0
24/04:30am 21.4 17.6 16.6 74 2.9 S 32 44 17 24 1008.6 - 0.0
24/04:00am 21.5 17.7 16.7 74 2.9 SSE 32 43 17 23 1008.4 - 0.0
24/03:30am 21.6 17.9 17.0 75 2.8 S 32 43 17 23 1008.4 - 0.0
24/03:00am 21.8 17.9 16.9 73 3.0 SSE 33 43 18 23 1008.5 1008.5 0.0
24/02:30am 21.9 18.0 17.0 73 3.0 SSE 33 44 18 24 1008.5 - 0.0
24/02:00am 22.0 18.2 17.1 74 3.0 SSE 33 44 18 24 1008.5 - 0.0
24/01:30am 22.1 18.7 17.8 76 2.7 S 32 43 17 23 1008.5 - 0.0
24/01:00am 22.2 18.8 17.7 75 2.8 S 32 39 17 21 1008.7 - 0.0
24/12:30am 22.2 18.5 17.5 74 2.9 S 33 46 18 25 1008.7 - 0.0
24/12:00am 22.5 17.8 17.7 74 3.0 S 39 52 21 28 1008.5 1008.5 0.0
 
Date/Time
WST
Temp
°C
App
Temp
°C
Dew
Point
°C
Rel
Hum
%
Delta-T
°C
Wind Press
QNH
hPa
Press
MSL
hPa
Rain since
9am
mm
Dir  Spd
km/h
Gust
km/h
Spd
kts
Gust
kts
23/11:30pm 22.7 18.9 18.1 75 2.9 S 35 48 19 26 1008.8 - 0.0
23/11:00pm 23.0 19.3 18.4 75 2.9 S 35 52 19 28 1008.9 - 0.0
23/10:56pm 22.9 19.3 18.6 77 2.7 S 35 54 19 29 1009.1 - 0.0
23/10:30pm 23.2 18.9 18.6 75 2.9 S 39 48 21 26 1009.1 - 0.0
23/10:00pm 23.2 19.0 18.9 77 2.7 S 39 46 21 25 1009.0 - 0.0
23/09:30pm 23.3 19.1 18.9 76 2.8 S 39 52 21 28 1009.1 - 0.0
23/09:00pm 23.4 19.2 18.8 75 2.9 S 39 52 21 28 1009.0 1009.0 0.0
23/08:30pm 23.5 18.5 18.8 75 3.0 S 43 61 23 33 1008.6 - 0.0
23/08:29pm 23.5 18.5 18.8 75 3.0 S 43 61 23 33 1008.5 - 0.0
23/08:00pm 24.0 18.7 18.5 71 3.5 S 44 54 24 29 1008.2 - 0.0
23/07:30pm 24.5 20.3 19.0 71 3.5 S 39 50 21 27 1007.7 - 0.0
23/07:00pm 24.8 21.1 19.2 71 3.6 S 37 48 20 26 1007.4 - 0.0
23/06:30pm 25.3 21.1 18.9 67 4.1 S 39 50 21 27 1007.1 - 0.0
23/06:00pm 25.5 23.9 20.8 75 3.1 SSW 30 41 16 22 1007.1 1007.1 0.0
23/05:30pm 25.8 24.1 20.6 73 3.4 SSW 30 39 16 21 1007.0 - 0.0
23/05:00pm 27.9 23.8 16.5 50 7.1 S 33 44 18 24 1007.0 - 0.0
23/04:30pm 27.9 24.0 16.9 51 6.9 S 33 44 18 24 1007.0 - 0.0
23/04:00pm 28.0 22.4 15.4 46 7.7 S 39 50 21 27 1007.0 - 0.0
23/03:30pm 28.3 22.4 14.8 43 8.2 S 39 50 21 27 1007.0 - 0.0
23/03:00pm 28.7 22.7 14.5 42 8.6 S 39 52 21 28 1007.1 1007.1 0.0
23/02:30pm 27.1 20.6 15.1 47 7.3 S 43 54 23 29 1007.4 - 0.0
23/02:00pm 28.0 21.8 14.8 44 8.0 S 41 54 22 29 1007.6 - 0.0
23/01:30pm 26.0 20.5 16.8 57 5.7 S 41 52 22 28 1007.9 - 0.0

Other Formats:

Comma delimited format used in spreadsheet applications
http://www.bom.gov.au/fwo/IDW60801/IDW60801.94300.axf

JavaScript Object Notation format (JSON) in row-major order
http://www.bom.gov.au/fwo/IDW60801/IDW60801.94300.json